Azalea Ace — A8ZJ6 — position and weather

sailwx.info

Track history (hours):
 
Tides and Currents Weather Stations Pressure Air Temp Water Temp Dewpoint Dewpoint Depression Visibility Wind Speed Wind Dir Waves Ship Positions

Azalea Ace

Last reported at 2017-Jan-22 07:28 UTC. Time now 2017-Jan-22 08:12 UTC.
Position N 33°44' W 118°10'.

Length 180 m; draft 7.2 m.

Type: Cargo ship. MMSI: 636015228.

Date/timePositionNaut miles runAvg speedWind from/ knotsBaromVisibWave heightAir tempDewpointWater temp
2017-Jan-22 07:28N 33°44' W 118°10'0 0.0
2017-Jan-22 06:31N 33°44' W 118°10'0 0.0
2017-Jan-21 07:30N 33°44' W 118°11'2 0.2
2017-Jan-20 20:07N 33°42' W 118°11'3 6.0
2017-Jan-20 19:32N 33°38' W 118°12'7 7.4
2017-Jan-20 18:33N 33°35' W 118°20'206 9.7
2017-Jan-19 21:15N 35°05' W 122°05'912.7
2017-Jan-19 20:33N 35°12' W 122°12'1312.4
2017-Jan-19 19:30N 35°22' W 122°22'1312.7
2017-Jan-19 18:30N 35°32' W 122°32'1412.8
2017-Jan-19 17:26N 35°43' W 122°43'1513.0
2017-Jan-19 16:19N 35°54' W 122°54'1013.2
2017-Jan-19 15:32N 36°02' W 123°01'2013.5
2017-Jan-19 14:03N 36°21' W 123°09'8214.9
2017-Jan-19 08:33N 37°38' W 123°44'1514.6
2017-Jan-19 07:33N 37°53' W 123°48'1514.5
2017-Jan-19 06:33N 38°07' W 123°51'1414.0
2017-Jan-19 05:34N 38°21' W 123°53'1313.4
2017-Jan-19 04:33N 38°34' W 123°55'1313.3
2017-Jan-19 03:33N 38°47' W 124°00'368 9.6
2017-Jan-17 13:03N 44°53' W 124°52'714.0
2017-Jan-17 12:32N 45°01' W 124°52'1414.0
2017-Jan-17 11:34N 45°14' W 124°51'1414.0
2017-Jan-17 10:34N 45°28' W 124°51'1413.9
2017-Jan-17 09:33N 45°42' W 124°51'1414.0
2017-Jan-17 08:33N 45°56' W 124°50'1413.9
2017-Jan-17 07:34N 46°10' W 124°49'1413.9
2017-Jan-17 06:33N 46°23' W 124°42'1413.9
2017-Jan-17 05:34N 46°36' W 124°34'1414.0
2017-Jan-17 04:33N 46°49' W 124°27'1010.1
2017-Jan-17 03:33N 46°53' W 124°13'9 8.9
2017-Jan-17 02:33N 46°56' W 124°01'3 0.2
2017-Jan-16 07:33N 46°58' W 123°57'1010.5
2017-Jan-16 06:33N 46°54' W 124°11'7 7.3
2017-Jan-16 05:33N 46°54' W 124°22'1111.4
2017-Jan-16 04:33N 46°58' W 124°38'1211.7
2017-Jan-16 03:33N 47°02' W 124°53'1212.1
2017-Jan-16 02:33N 47°08' W 125°09'10 8.7
2017-Jan-16 01:23N 47°18' W 125°14'2 2.1
2017-Jan-16 00:32N 47°16' W 125°16'1 1.4
2017-Jan-15 23:32N 47°15' W 125°17'1 1.1
2017-Jan-15 22:29N 47°14' W 125°18'0 0.5
2017-Jan-15 21:32N 47°14' W 125°19'1 1.3
2017-Jan-15 20:32N 47°14' W 125°21'4 4.5
2017-Jan-15 19:33N 47°18' W 125°17'6 5.7
2017-Jan-15 18:27N 47°22' W 125°11'2 1.8
2017-Jan-15 17:33N 47°21' W 125°12'2 2.1
2017-Jan-15 16:30N 47°19' W 125°13'2 1.7
2017-Jan-15 15:30N 47°17' W 125°14'6 6.6
2017-Jan-15 14:34N 47°23' W 125°17'1212.1
2017-Jan-15 13:34N 47°35' W 125°21'1312.7
2017-Jan-15 12:33N 47°47' W 125°25'1311.9
2017-Jan-15 11:27N 48°00' W 125°30'1111.7
2017-Jan-15 10:32N 48°10' W 125°22'1212.1
2017-Jan-15 09:32N 48°20' W 125°13'1211.9
2017-Jan-15 08:33N 48°29' W 125°02'1211.8
2017-Jan-15 07:33N 48°31' W 124°45'1413.7
2017-Jan-15 06:33N 48°26' W 124°26'1514.7
2017-Jan-15 05:33N 48°20' W 124°05'1515.0
2017-Jan-15 04:33N 48°16' W 123°43'1313.1
2017-Jan-15 03:33N 48°21' W 123°25'1110.9
2017-Jan-15 02:33N 48°28' W 123°12'1615.7
2017-Jan-15 01:34N 48°44' W 123°10'1211.8
2017-Jan-15 00:34N 48°55' W 123°10'1212.1
2017-Jan-14 23:34N 49°06' W 123°18'1110.5
2017-Jan-14 22:34N 49°09' W 123°02'5 4.9
2017-Jan-14 21:32N 49°11' W 122°55'0 0.0
2017-Jan-14 20:32N 49°11' W 122°55'0 0.0
2017-Jan-14 19:32N 49°11' W 122°55'0 0.0
2017-Jan-14 18:32N 49°11' W 122°55'0 0.0
2017-Jan-14 17:32N 49°11' W 122°55'0 0.0
2017-Jan-14 16:32N 49°11' W 122°55'0 0.0
2017-Jan-14 15:32N 49°11' W 122°55'0 0.0
2017-Jan-14 14:32N 49°11' W 122°55'0 0.0
2017-Jan-14 13:32N 49°11' W 122°55'0 0.0
2017-Jan-14 12:32N 49°11' W 122°55'0 0.0
2017-Jan-14 11:32N 49°11' W 122°55'5 5.5
2017-Jan-14 10:33N 49°09' W 123°03'1111.1
2017-Jan-14 09:33N 49°06' W 123°19'1110.8
2017-Jan-14 08:33N 48°57' W 123°10'1312.7
2017-Jan-14 07:33N 48°44' W 123°08'1313.0
2017-Jan-14 06:33N 48°31' W 123°11'1211.8
2017-Jan-14 05:33N 48°22' W 123°21'6 6.3
2017-Jan-14 04:33N 48°16' W 123°26'9 8.5
2017-Jan-14 03:34N 48°08' W 123°22'5714.2
2017-Jan-13 23:34N 47°27' W 122°24'1110.3
2017-Jan-13 22:32N 47°17' W 122°25'2 1.8
2017-Jan-13 21:31N 47°16' W 122°23'0 0.0
2017-Jan-13 18:28N 47°16' W 122°23'0 0.0
2017-Jan-13 17:31N 47°16' W 122°23'0 0.0
2017-Jan-13 16:28N 47°16' W 122°23'0 0.2
2017-Jan-13 15:34N 47°16' W 122°23'5 5.2
2017-Jan-13 14:34N 47°19' W 122°28'1515.0
2017-Jan-13 13:34N 47°35' W 122°27'1818.0
2017-Jan-13 12:34N 47°53' W 122°29'1919.0
2017-Jan-13 11:33N 48°09' W 122°44'1818.3
2017-Jan-13 10:33N 48°11' W 123°11'1212.0
2017-Jan-13 09:33N 48°12' W 123°29'1515.0
2017-Jan-13 08:33N 48°13' W 123°51'1616.2
2017-Jan-13 07:33N 48°19' W 124°14'1616.4
2017-Jan-13 06:33N 48°26' W 124°36'1616.1
2017-Jan-13 05:33N 48°28' W 125°01'1616.6
2017-Jan-13 04:33N 48°28' W 125°25'1716.8
2017-Jan-13 03:33N 48°28' W 125°51'1717.1
2017-Jan-13 02:33N 48°28' W 126°17'  
Track history (hours):
 
Tides and Currents Weather Stations Pressure Air Temp Water Temp Dewpoint Dewpoint Depression Visibility Wind Speed Wind Dir Waves Ship Positions

Azalea Ace

Last reported at 2017-Jan-22 07:28 UTC. Time now 2017-Jan-22 08:12 UTC.
Position N 33°44' W 118°10'.

Length 180 m; draft 7.2 m.

Type: Cargo ship. MMSI: 636015228.

Date/timePositionNaut miles runAvg speedWind from/ knotsBaromVisibWave heightAir tempDewpointWater temp
2017-Jan-22 07:28N 33°44' W 118°10'0 0.0
2017-Jan-22 06:31N 33°44' W 118°10'0 0.0
2017-Jan-21 07:30N 33°44' W 118°11'2 0.2
2017-Jan-20 20:07N 33°42' W 118°11'3 6.0
2017-Jan-20 19:32N 33°38' W 118°12'7 7.4
2017-Jan-20 18:33N 33°35' W 118°20'206 9.7
2017-Jan-19 21:15N 35°05' W 122°05'912.7
2017-Jan-19 20:33N 35°12' W 122°12'1312.4
2017-Jan-19 19:30N 35°22' W 122°22'1312.7
2017-Jan-19 18:30N 35°32' W 122°32'1412.8
2017-Jan-19 17:26N 35°43' W 122°43'1513.0
2017-Jan-19 16:19N 35°54' W 122°54'1013.2
2017-Jan-19 15:32N 36°02' W 123°01'2013.5
2017-Jan-19 14:03N 36°21' W 123°09'8214.9
2017-Jan-19 08:33N 37°38' W 123°44'1514.6
2017-Jan-19 07:33N 37°53' W 123°48'1514.5
2017-Jan-19 06:33N 38°07' W 123°51'1414.0
2017-Jan-19 05:34N 38°21' W 123°53'1313.4
2017-Jan-19 04:33N 38°34' W 123°55'1313.3
2017-Jan-19 03:33N 38°47' W 124°00'368 9.6
2017-Jan-17 13:03N 44°53' W 124°52'714.0
2017-Jan-17 12:32N 45°01' W 124°52'1414.0
2017-Jan-17 11:34N 45°14' W 124°51'1414.0
2017-Jan-17 10:34N 45°28' W 124°51'1413.9
2017-Jan-17 09:33N 45°42' W 124°51'1414.0
2017-Jan-17 08:33N 45°56' W 124°50'1413.9
2017-Jan-17 07:34N 46°10' W 124°49'1413.9
2017-Jan-17 06:33N 46°23' W 124°42'1413.9
2017-Jan-17 05:34N 46°36' W 124°34'1414.0
2017-Jan-17 04:33N 46°49' W 124°27'1010.1
2017-Jan-17 03:33N 46°53' W 124°13'9 8.9
2017-Jan-17 02:33N 46°56' W 124°01'3 0.2
2017-Jan-16 07:33N 46°58' W 123°57'1010.5
2017-Jan-16 06:33N 46°54' W 124°11'7 7.3
2017-Jan-16 05:33N 46°54' W 124°22'1111.4
2017-Jan-16 04:33N 46°58' W 124°38'1211.7
2017-Jan-16 03:33N 47°02' W 124°53'1212.1
2017-Jan-16 02:33N 47°08' W 125°09'10 8.7
2017-Jan-16 01:23N 47°18' W 125°14'2 2.1
2017-Jan-16 00:32N 47°16' W 125°16'1 1.4
2017-Jan-15 23:32N 47°15' W 125°17'1 1.1
2017-Jan-15 22:29N 47°14' W 125°18'0 0.5
2017-Jan-15 21:32N 47°14' W 125°19'1 1.3
2017-Jan-15 20:32N 47°14' W 125°21'4 4.5
2017-Jan-15 19:33N 47°18' W 125°17'6 5.7
2017-Jan-15 18:27N 47°22' W 125°11'2 1.8
2017-Jan-15 17:33N 47°21' W 125°12'2 2.1
2017-Jan-15 16:30N 47°19' W 125°13'2 1.7
2017-Jan-15 15:30N 47°17' W 125°14'6 6.6
2017-Jan-15 14:34N 47°23' W 125°17'1212.1
2017-Jan-15 13:34N 47°35' W 125°21'1312.7
2017-Jan-15 12:33N 47°47' W 125°25'1311.9
2017-Jan-15 11:27N 48°00' W 125°30'1111.7
2017-Jan-15 10:32N 48°10' W 125°22'1212.1
2017-Jan-15 09:32N 48°20' W 125°13'1211.9
2017-Jan-15 08:33N 48°29' W 125°02'1211.8
2017-Jan-15 07:33N 48°31' W 124°45'1413.7
2017-Jan-15 06:33N 48°26' W 124°26'1514.7
2017-Jan-15 05:33N 48°20' W 124°05'1515.0
2017-Jan-15 04:33N 48°16' W 123°43'1313.1
2017-Jan-15 03:33N 48°21' W 123°25'1110.9
2017-Jan-15 02:33N 48°28' W 123°12'1615.7
2017-Jan-15 01:34N 48°44' W 123°10'1211.8
2017-Jan-15 00:34N 48°55' W 123°10'1212.1
2017-Jan-14 23:34N 49°06' W 123°18'1110.5
2017-Jan-14 22:34N 49°09' W 123°02'5 4.9
2017-Jan-14 21:32N 49°11' W 122°55'0 0.0
2017-Jan-14 20:32N 49°11' W 122°55'0 0.0
2017-Jan-14 19:32N 49°11' W 122°55'0 0.0
2017-Jan-14 18:32N 49°11' W 122°55'0 0.0
2017-Jan-14 17:32N 49°11' W 122°55'0 0.0
2017-Jan-14 16:32N 49°11' W 122°55'0 0.0
2017-Jan-14 15:32N 49°11' W 122°55'0 0.0
2017-Jan-14 14:32N 49°11' W 122°55'0 0.0
2017-Jan-14 13:32N 49°11' W 122°55'0 0.0
2017-Jan-14 12:32N 49°11' W 122°55'0 0.0
2017-Jan-14 11:32N 49°11' W 122°55'5 5.5
2017-Jan-14 10:33N 49°09' W 123°03'1111.1
2017-Jan-14 09:33N 49°06' W 123°19'1110.8
2017-Jan-14 08:33N 48°57' W 123°10'1312.7
2017-Jan-14 07:33N 48°44' W 123°08'1313.0
2017-Jan-14 06:33N 48°31' W 123°11'1211.8
2017-Jan-14 05:33N 48°22' W 123°21'6 6.3
2017-Jan-14 04:33N 48°16' W 123°26'9 8.5
2017-Jan-14 03:34N 48°08' W 123°22'5714.2
2017-Jan-13 23:34N 47°27' W 122°24'1110.3
2017-Jan-13 22:32N 47°17' W 122°25'2 1.8
2017-Jan-13 21:31N 47°16' W 122°23'0 0.0
2017-Jan-13 18:28N 47°16' W 122°23'0 0.0
2017-Jan-13 17:31N 47°16' W 122°23'0 0.0
2017-Jan-13 16:28N 47°16' W 122°23'0 0.2
2017-Jan-13 15:34N 47°16' W 122°23'5 5.2
2017-Jan-13 14:34N 47°19' W 122°28'1515.0
2017-Jan-13 13:34N 47°35' W 122°27'1818.0
2017-Jan-13 12:34N 47°53' W 122°29'1919.0
2017-Jan-13 11:33N 48°09' W 122°44'1818.3
2017-Jan-13 10:33N 48°11' W 123°11'1212.0
2017-Jan-13 09:33N 48°12' W 123°29'1515.0
2017-Jan-13 08:33N 48°13' W 123°51'1616.2
2017-Jan-13 07:33N 48°19' W 124°14'1616.4
2017-Jan-13 06:33N 48°26' W 124°36'1616.1
2017-Jan-13 05:33N 48°28' W 125°01'1616.6
2017-Jan-13 04:33N 48°28' W 125°25'1716.8
2017-Jan-13 03:33N 48°28' W 125°51'1717.1
2017-Jan-13 02:33N 48°28' W 126°17'  

Dump ship's entire track history